Time;durP1;ratioP1;P1;durP2;ratioP2;P2;SDS_P1;SDS_P2;PMS_P1;PMS_P2;Temp;Humidity;BMP_temperature;BMP_pressure;BME280_temperature;BME280_humidity;BME280_pressure;Samples;Min_cycle;Max_cycle;Signal;HPM_P1;HPM_P2
2022/11/28 00:01:04;;;;;;;1.73;1.63;;;;;;;;;;4997327;28;20042;-31
2022/11/28 00:03:30;;;;;;;1.65;1.55;;;;;;;;;;4995969;28;20512;-31
2022/11/28 00:05:56;;;;;;;1.88;1.40;;;;;;;;;;4996822;28;20142;-31
2022/11/28 00:08:22;;;;;;;1.38;1.27;;;;;;;;;;4997097;28;20387;-31
2022/11/28 00:10:49;;;;;;;1.25;1.15;;;;;;;;;;4996781;28;20034;-32
2022/11/28 00:13:15;;;;;;;1.27;1.27;;;;;;;;;;4997004;28;20048;-32
2022/11/28 00:15:41;;;;;;;1.17;1.08;;;;;;;;;;4996719;28;20040;-31
2022/11/28 00:18:09;;;;;;;1.40;1.30;;;;;;;;;;4996734;28;20098;-33
2022/11/28 00:20:35;;;;;;;1.83;1.73;;;;;;;;;;4996659;28;20088;-32
2022/11/28 00:23:01;;;;;;;1.38;1.27;;;;;;;;;;4996562;28;20029;-33
2022/11/28 00:25:27;;;;;;;1.50;1.40;;;;;;;;;;4995641;28;20030;-31
2022/11/28 00:27:54;;;;;;;1.98;1.27;;;;;;;;;;4996505;28;20022;-32
2022/11/28 00:30:20;;;;;;;1.25;1.15;;;;;;;;;;4996671;28;20037;-31
2022/11/28 00:32:46;;;;;;;1.17;1.08;;;;;;;;;;4996899;28;20394;-31
2022/11/28 00:35:12;;;;;;;1.02;1.02;;;;;;;;;;4996351;28;20030;-32
2022/11/28 00:37:38;;;;;;;1.73;1.63;;;;;;;;;;4996642;28;20022;-31
2022/11/28 00:40:05;;;;;;;1.20;1.10;;;;;;;;;;4996298;28;20026;-32
2022/11/28 00:42:31;;;;;;;1.20;1.10;;;;;;;;;;4996158;28;20366;-31
2022/11/28 00:44:57;;;;;;;1.63;1.52;;;;;;;;;;4996227;28;20026;-32
2022/11/28 00:47:23;;;;;;;1.75;1.63;;;;;;;;;;4996124;28;20045;-32
2022/11/28 00:49:49;;;;;;;3.38;1.35;;;;;;;;;;4995841;28;20027;-31
2022/11/28 00:52:15;;;;;;;1.60;1.40;;;;;;;;;;4995953;28;20057;-31
2022/11/28 00:54:42;;;;;;;2.35;1.75;;;;;;;;;;4995994;28;20195;-31
2022/11/28 00:57:08;;;;;;;1.00;1.00;;;;;;;;;;4996258;28;20080;-32
2022/11/28 00:59:34;;;;;;;1.48;1.13;;;;;;;;;;4996467;28;20029;-34
2022/11/28 01:02:00;;;;;;;1.80;1.65;;;;;;;;;;4996381;28;20030;-31
2022/11/28 01:04:26;;;;;;;1.85;1.50;;;;;;;;;;4995613;28;20078;-30
2022/11/28 01:06:52;;;;;;;1.73;1.33;;;;;;;;;;4995821;28;20049;-31
2022/11/28 01:09:20;;;;;;;1.42;1.33;;;;;;;;;;4996280;28;20033;-32
2022/11/28 01:11:50;;;;;;;1.95;1.75;;;;;;;;;;4996037;28;20100;-31
2022/11/28 01:14:17;;;;;;;1.60;1.48;;;;;;;;;;4996233;28;20046;-33
2022/11/28 01:16:44;;;;;;;1.17;1.08;;;;;;;;;;4995633;28;20130;-31
2022/11/28 01:19:10;;;;;;;1.40;1.30;;;;;;;;;;4995917;28;20030;-32
2022/11/28 01:21:37;;;;;;;1.38;1.23;;;;;;;;;;4995553;28;20044;-32
2022/11/28 01:24:03;;;;;;;1.30;1.20;;;;;;;;;;4996050;28;20422;-33
2022/11/28 01:26:30;;;;;;;1.70;1.55;;;;;;;;;;4995797;28;20110;-32
2022/11/28 01:28:57;;;;;;;1.10;1.00;;;;;;;;;;4995411;28;20092;-32
2022/11/28 01:31:25;;;;;;;1.30;1.20;;;;;;;;;;4995713;28;20100;-32
2022/11/28 01:33:51;;;;;;;1.30;1.20;;;;;;;;;;4995656;28;20037;-32
2022/11/28 01:36:19;;;;;;;1.23;1.13;;;;;;;;;;4995691;28;20035;-31
2022/11/28 01:38:45;;;;;;;1.40;1.30;;;;;;;;;;4995374;28;20034;-31
2022/11/28 01:41:12;;;;;;;1.50;1.40;;;;;;;;;;4995628;28;20030;-33
2022/11/28 01:43:56;;;;;;;1.33;1.23;;;;;;;;;;4994345;28;20027;-32
2022/11/28 01:46:22;;;;;;;0.95;0.95;;;;;;;;;;4995555;28;20118;-31
2022/11/28 01:48:48;;;;;;;1.70;1.60;;;;;;;;;;4995215;28;20026;-31
2022/11/28 01:51:15;;;;;;;1.10;1.00;;;;;;;;;;4995506;28;20031;-31
2022/11/28 01:53:42;;;;;;;1.17;1.13;;;;;;;;;;4995185;28;20480;-33
2022/11/28 01:56:12;;;;;;;1.67;1.58;;;;;;;;;;4995501;28;20030;-33
2022/11/28 01:58:39;;;;;;;1.40;1.10;;;;;;;;;;4995460;28;20457;-31
2022/11/28 02:01:06;;;;;;;1.50;1.40;;;;;;;;;;4996299;28;20030;-34
2022/11/28 02:03:43;;;;;;;1.38;1.20;;;;;;;;;;4999300;28;20372;-31
2022/11/28 02:06:10;;;;;;;1.50;1.40;;;;;;;;;;4999185;28;20113;-30
2022/11/28 02:08:37;;;;;;;1.48;1.38;;;;;;;;;;4999018;28;20038;-35
2022/11/28 02:11:13;;;;;;;1.63;1.33;;;;;;;;;;4999297;28;20066;-33
2022/11/28 02:13:40;;;;;;;1.92;1.40;;;;;;;;;;4999007;28;20481;-31
2022/11/28 02:16:24;;;;;;;1.40;1.00;;;;;;;;;;4998954;28;20030;-32
2022/11/28 02:19:11;;;;;;;1.35;1.25;;;;;;;;;;4998977;28;20061;-32
2022/11/28 02:21:55;;;;;;;1.55;1.35;;;;;;;;;;4999081;28;20030;-31
2022/11/28 02:24:34;;;;;;;2.13;1.40;;;;;;;;;;4999424;28;20089;-32
2022/11/28 02:27:18;;;;;;;1.50;1.40;;;;;;;;;;4999383;28;20044;-31
2022/11/28 02:29:45;;;;;;;1.08;1.05;;;;;;;;;;4998701;28;20031;-32
2022/11/28 02:32:17;;;;;;;1.88;1.70;;;;;;;;;;4998906;28;20034;-31
2022/11/28 02:34:46;;;;;;;1.40;1.30;;;;;;;;;;4998677;28;20161;-31
2022/11/28 02:37:30;;;;;;;1.90;1.23;;;;;;;;;;4998868;28;20034;-31
2022/11/28 02:40:06;;;;;;;1.13;1.05;;;;;;;;;;4998601;28;20057;-32
2022/11/28 02:42:38;;;;;;;1.17;1.08;;;;;;;;;;4998679;28;20354;-31
2022/11/28 02:45:10;;;;;;;1.30;1.20;;;;;;;;;;4998740;28;20073;-32
2022/11/28 02:47:38;;;;;;;0.98;0.98;;;;;;;;;;4998407;28;20034;-31
2022/11/28 02:50:04;;;;;;;1.02;0.98;;;;;;;;;;4998266;28;20532;-34
2022/11/28 02:52:35;;;;;;;2.83;1.52;;;;;;;;;;4998185;28;20076;-31
2022/11/28 02:55:02;;;;;;;1.20;1.08;;;;;;;;;;4998293;28;20041;-31
2022/11/28 02:57:39;;;;;;;1.83;1.33;;;;;;;;;;4998246;28;20108;-31
2022/11/28 03:00:25;;;;;;;1.38;1.27;;;;;;;;;;4998224;28;20105;-31
2022/11/28 03:03:02;;;;;;;1.88;1.45;;;;;;;;;;4998080;28;20453;-31
2022/11/28 03:05:51;;;;;;;1.17;1.17;;;;;;;;;;4998051;28;20046;-34
2022/11/28 03:08:36;;;;;;;1.13;1.13;;;;;;;;;;4988041;28;20042;-32
2022/11/28 03:11:22;;;;;;;1.50;1.40;;;;;;;;;;4998049;28;20397;-34
2022/11/28 03:14:07;;;;;;;1.67;1.17;;;;;;;;;;4997816;28;20022;-31
2022/11/28 03:16:59;;;;;;;1.58;1.48;;;;;;;;;;4997862;28;20093;-31
2022/11/28 03:19:37;;;;;;;1.27;1.17;;;;;;;;;;4994380;28;20465;-33
2022/11/28 03:22:21;;;;;;;1.52;1.42;;;;;;;;;;4997738;28;20041;-31
2022/11/28 03:24:54;;;;;;;1.30;1.20;;;;;;;;;;4998324;28;20030;-31
2022/11/28 03:27:25;;;;;;;1.35;1.25;;;;;;;;;;4998501;28;20030;-32
2022/11/28 03:30:03;;;;;;;1.42;1.33;;;;;;;;;;4997976;28;20069;-31
2022/11/28 03:32:31;;;;;;;1.50;1.30;;;;;;;;;;4997810;28;20022;-33
2022/11/28 03:35:03;;;;;;;1.38;1.27;;;;;;;;;;4997867;28;20346;-34
2022/11/28 03:37:32;;;;;;;1.52;1.33;;;;;;;;;;4996653;28;20022;-32
2022/11/28 03:40:00;;;;;;;1.77;1.15;;;;;;;;;;4997486;28;20026;-34
2022/11/28 03:42:28;;;;;;;1.00;0.90;;;;;;;;;;4997374;28;20030;-34
2022/11/28 03:45:06;;;;;;;1.08;0.98;;;;;;;;;;4997404;28;20043;-33
2022/11/28 03:47:36;;;;;;;1.30;1.20;;;;;;;;;;4997599;28;20053;-33
2022/11/28 03:50:04;;;;;;;2.78;1.25;;;;;;;;;;4997184;28;20110;-31
2022/11/28 03:52:39;;;;;;;1.27;1.17;;;;;;;;;;4997452;28;20434;-32
2022/11/28 03:55:07;;;;;;;1.65;1.55;;;;;;;;;;4997482;28;20026;-31
2022/11/28 03:57:43;;;;;;;1.52;1.40;;;;;;;;;;4997100;28;20023;-32
2022/11/28 04:00:14;;;;;;;1.90;1.50;;;;;;;;;;4996308;28;20454;-32
2022/11/28 04:02:40;;;;;;;1.60;1.50;;;;;;;;;;4997297;28;20054;-31
2022/11/28 04:05:13;;;;;;;1.90;1.42;;;;;;;;;;4996929;28;20068;-32
2022/11/28 04:07:39;;;;;;;1.25;1.15;;;;;;;;;;4997235;28;20030;-30
2022/11/28 04:10:15;;;;;;;1.40;1.30;;;;;;;;;;4996797;28;20030;-31
2022/11/28 04:13:10;;;;;;;1.75;1.50;;;;;;;;;;4995880;28;20046;-31
2022/11/28 04:15:37;;;;;;;1.23;1.10;;;;;;;;;;4980327;28;20121;-32
2022/11/28 04:18:17;;;;;;;1.50;1.40;;;;;;;;;;4997841;28;20481;-33
2022/11/28 04:21:06;;;;;;;1.40;1.30;;;;;;;;;;4996718;28;20034;-31
2022/11/28 04:23:33;;;;;;;1.60;1.30;;;;;;;;;;4960054;28;20042;-32
2022/11/28 04:26:20;;;;;;;1.55;1.45;;;;;;;;;;4996910;28;20041;-32
2022/11/28 04:28:48;;;;;;;1.73;1.20;;;;;;;;;;4996421;28;20031;-31
2022/11/28 04:31:15;;;;;;;1.00;1.00;;;;;;;;;;4996724;28;20466;-31
2022/11/28 04:33:44;;;;;;;1.30;1.20;;;;;;;;;;4996339;28;20046;-33
2022/11/28 04:36:11;;;;;;;1.35;1.23;;;;;;;;;;4996390;28;20034;-31
2022/11/28 04:38:38;;;;;;;1.58;1.48;;;;;;;;;;4996586;28;20104;-32
2022/11/28 04:41:13;;;;;;;1.52;1.10;;;;;;;;;;4996554;28;20036;-31
2022/11/28 04:43:45;;;;;;;1.42;1.30;;;;;;;;;;4996128;28;20042;-33
2022/11/28 04:46:14;;;;;;;1.30;1.20;;;;;;;;;;4996483;28;20030;-31
2022/11/28 04:48:40;;;;;;;1.35;1.25;;;;;;;;;;4996277;28;20033;-32
2022/11/28 04:51:15;;;;;;;1.73;1.63;;;;;;;;;;4996804;28;20023;-31
2022/11/28 04:53:51;;;;;;;1.50;1.40;;;;;;;;;;4995884;28;20038;-34
2022/11/28 04:56:23;;;;;;;1.00;1.00;;;;;;;;;;4978895;28;20050;-32
2022/11/28 04:58:50;;;;;;;1.63;1.52;;;;;;;;;;4995918;28;20110;-33
2022/11/28 05:01:21;;;;;;;1.08;0.98;;;;;;;;;;4995827;28;20081;-32
2022/11/28 05:03:48;;;;;;;1.50;1.40;;;;;;;;;;4995758;28;20039;-35
2022/11/28 05:06:28;;;;;;;1.35;1.27;;;;;;;;;;4995969;28;20073;-34
2022/11/28 05:08:54;;;;;;;1.40;1.30;;;;;;;;;;4994657;28;20118;-33
2022/11/28 05:11:20;;;;;;;1.20;1.10;;;;;;;;;;4995671;28;20369;-32
2022/11/28 05:13:46;;;;;;;1.88;1.77;;;;;;;;;;4996099;28;20121;-32
2022/11/28 05:16:13;;;;;;;1.35;1.25;;;;;;;;;;4995628;28;20026;-32
2022/11/28 05:18:40;;;;;;;1.80;1.52;;;;;;;;;;4995850;28;20042;-32
2022/11/28 05:21:07;;;;;;;1.48;1.30;;;;;;;;;;4995517;28;20030;-32
2022/11/28 05:23:41;;;;;;;1.23;1.13;;;;;;;;;;4994468;28;20369;-32
2022/11/28 05:26:09;;;;;;;1.10;1.00;;;;;;;;;;4995807;28;20034;-31
2022/11/28 05:28:35;;;;;;;1.23;1.13;;;;;;;;;;4995541;28;20061;-30
2022/11/28 05:31:02;;;;;;;1.25;1.17;;;;;;;;;;4995525;28;20101;-31
2022/11/28 05:33:29;;;;;;;1.45;1.35;;;;;;;;;;4995254;28;20030;-36
2022/11/28 05:35:55;;;;;;;1.45;1.35;;;;;;;;;;4994746;28;20358;-33
2022/11/28 05:38:22;;;;;;;1.40;1.30;;;;;;;;;;4995589;28;20489;-32
2022/11/28 05:40:48;;;;;;;1.15;1.15;;;;;;;;;;4995302;28;20465;-32
2022/11/28 05:43:14;;;;;;;1.30;1.20;;;;;;;;;;4995150;28;20030;-33
2022/11/28 05:45:41;;;;;;;1.48;1.38;;;;;;;;;;4995225;28;20446;-32
2022/11/28 05:48:07;;;;;;;1.35;1.25;;;;;;;;;;4995507;28;20097;-32
2022/11/28 05:50:33;;;;;;;1.40;1.30;;;;;;;;;;4995315;28;20109;-32
2022/11/28 05:53:00;;;;;;;3.78;1.77;;;;;;;;;;4995111;28;20052;-33
2022/11/28 05:55:26;;;;;;;1.30;1.20;;;;;;;;;;4995163;28;20525;-32
2022/11/28 05:57:53;;;;;;;1.30;1.20;;;;;;;;;;4995162;28;20026;-32
2022/11/28 06:03:21;;;;;;;1.55;1.45;;;;;;;;;;5334349;23;20112;-30
2022/11/28 06:05:47;;;;;;;2.70;1.33;;;;;;;;;;4995375;28;20049;-31
2022/11/28 06:08:14;;;;;;;1.23;1.13;;;;;;;;;;4995755;28;20034;-30
2022/11/28 06:10:40;;;;;;;1.65;1.35;;;;;;;;;;4995444;28;20031;-30
2022/11/28 06:13:07;;;;;;;2.08;0.98;;;;;;;;;;4995195;28;20397;-31
2022/11/28 06:15:33;;;;;;;1.92;1.35;;;;;;;;;;4995529;28;20068;-30
2022/11/28 06:17:59;;;;;;;2.50;1.40;;;;;;;;;;4994052;28;20026;-31
2022/11/28 06:20:25;;;;;;;2.35;1.50;;;;;;;;;;4995231;28;20419;-30
2022/11/28 06:22:51;;;;;;;1.67;1.27;;;;;;;;;;4994893;28;20065;-31
2022/11/28 06:25:17;;;;;;;2.03;1.35;;;;;;;;;;4994886;28;20034;-30
2022/11/28 06:27:44;;;;;;;3.65;1.65;;;;;;;;;;4995131;28;20079;-31
2022/11/28 06:30:10;;;;;;;2.10;1.17;;;;;;;;;;4993836;28;20042;-41
2022/11/28 06:32:36;;;;;;;4.70;1.77;;;;;;;;;;4994723;28;20417;-36
2022/11/28 06:35:02;;;;;;;1.42;1.17;;;;;;;;;;4994780;28;20045;-32
2022/11/28 06:37:29;;;;;;;1.38;1.20;;;;;;;;;;4995251;28;20445;-31
2022/11/28 06:39:55;;;;;;;1.63;1.52;;;;;;;;;;4994715;28;20524;-33
2022/11/28 06:42:21;;;;;;;1.67;1.35;;;;;;;;;;4994821;28;20034;-31
2022/11/28 06:44:47;;;;;;;2.13;1.00;;;;;;;;;;4994586;28;20084;-32
2022/11/28 06:47:13;;;;;;;2.55;1.50;;;;;;;;;;4994764;28;20044;-32
2022/11/28 06:49:39;;;;;;;1.30;1.20;;;;;;;;;;4998159;28;20026;-31
2022/11/28 06:52:05;;;;;;;3.72;1.60;;;;;;;;;;4998219;28;20035;-32
2022/11/28 06:54:31;;;;;;;1.52;1.42;;;;;;;;;;4998432;28;20431;-31
2022/11/28 06:56:58;;;;;;;1.42;1.10;;;;;;;;;;4998134;28;20144;-31
2022/11/28 06:59:24;;;;;;;1.65;1.40;;;;;;;;;;4998056;28;20362;-33
2022/11/28 07:01:50;;;;;;;1.52;1.33;;;;;;;;;;4998259;28;20092;-32
2022/11/28 07:04:16;;;;;;;1.50;1.10;;;;;;;;;;4997805;28;20132;-32
2022/11/28 07:06:43;;;;;;;1.42;1.20;;;;;;;;;;4998236;28;20040;-31
2022/11/28 07:09:09;;;;;;;1.95;1.73;;;;;;;;;;4997797;28;20030;-32
2022/11/28 07:11:36;;;;;;;1.48;1.38;;;;;;;;;;4997873;28;20034;-30
2022/11/28 07:14:02;;;;;;;1.38;1.20;;;;;;;;;;4998142;28;20054;-30
2022/11/28 07:16:30;;;;;;;4.10;2.03;;;;;;;;;;4997912;28;20397;-31
2022/11/28 07:18:56;;;;;;;1.63;1.40;;;;;;;;;;4998195;28;20030;-31
2022/11/28 07:21:23;;;;;;;3.40;1.77;;;;;;;;;;4997576;28;20054;-31
2022/11/28 07:23:49;;;;;;;5.53;1.27;;;;;;;;;;4997559;28;20058;-32
2022/11/28 07:26:16;;;;;;;3.53;1.67;;;;;;;;;;4998122;28;20027;-30
2022/11/28 07:28:42;;;;;;;3.33;1.70;;;;;;;;;;4997879;28;20030;-30
2022/11/28 07:31:10;;;;;;;4.80;1.70;;;;;;;;;;4997744;28;20057;-31
2022/11/28 07:33:37;;;;;;;3.88;1.73;;;;;;;;;;4997856;28;20076;-31
2022/11/28 07:36:04;;;;;;;5.53;2.50;;;;;;;;;;4997342;28;20045;-31
2022/11/28 07:38:31;;;;;;;6.38;2.08;;;;;;;;;;4997570;28;20461;-30
2022/11/28 07:41:03;;;;;;;6.82;1.85;;;;;;;;;;4997321;28;20026;-31
2022/11/28 07:43:30;;;;;;;10.75;1.77;;;;;;;;;;4996368;28;20026;-30
2022/11/28 07:45:56;;;;;;;14.43;1.95;;;;;;;;;;4997274;28;20077;-32
2022/11/28 07:48:22;;;;;;;3.67;1.90;;;;;;;;;;4997570;28;20093;-32
2022/11/28 07:50:49;;;;;;;10.75;2.05;;;;;;;;;;4998212;28;20027;-30
2022/11/28 07:53:15;;;;;;;3.03;1.45;;;;;;;;;;4996964;28;20097;-30
2022/11/28 07:55:41;;;;;;;5.85;2.20;;;;;;;;;;4997075;28;20023;-31
2022/11/28 07:58:07;;;;;;;4.97;1.58;;;;;;;;;;4995475;28;20479;-31
2022/11/28 08:00:33;;;;;;;3.92;1.55;;;;;;;;;;4996562;28;20046;-32
2022/11/28 08:02:59;;;;;;;8.18;1.70;;;;;;;;;;4996676;28;20054;-31
2022/11/28 08:05:26;;;;;;;11.43;2.15;;;;;;;;;;4996967;28;20365;-36
2022/11/28 08:07:52;;;;;;;8.48;1.90;;;;;;;;;;4996820;28;20465;-31
2022/11/28 08:10:19;;;;;;;6.03;1.67;;;;;;;;;;4995839;28;20092;-31
2022/11/28 08:12:45;;;;;;;6.40;1.50;;;;;;;;;;4996880;28;20097;-30
2022/11/28 08:15:11;;;;;;;2.75;1.50;;;;;;;;;;4997328;28;20022;-30
2022/11/28 08:17:37;;;;;;;5.63;1.92;;;;;;;;;;4996956;28;20034;-31
2022/11/28 08:20:03;;;;;;;9.13;1.85;;;;;;;;;;4996627;28;20030;-30
2022/11/28 08:22:29;;;;;;;5.18;2.92;;;;;;;;;;4995929;28;20342;-30
2022/11/28 08:24:56;;;;;;;8.07;3.17;;;;;;;;;;4995577;28;20034;-30
2022/11/28 08:27:22;;;;;;;4.38;1.75;;;;;;;;;;4996515;28;20410;-31
2022/11/28 08:29:48;;;;;;;6.15;2.25;;;;;;;;;;4995463;28;20057;-30
2022/11/28 08:32:14;;;;;;;10.80;1.70;;;;;;;;;;4996459;28;20046;-30
2022/11/28 08:34:40;;;;;;;5.53;1.60;;;;;;;;;;4996324;28;20019;-30
2022/11/28 08:37:07;;;;;;;4.57;1.80;;;;;;;;;;4995680;28;20445;-30
2022/11/28 08:39:33;;;;;;;7.30;1.58;;;;;;;;;;4996588;28;20452;-30
2022/11/28 08:41:59;;;;;;;5.40;1.83;;;;;;;;;;4996472;28;20034;-31
2022/11/28 08:44:26;;;;;;;7.72;2.05;;;;;;;;;;4996507;28;20433;-31
2022/11/28 08:46:52;;;;;;;9.13;2.25;;;;;;;;;;4979139;28;20100;-32
2022/11/28 08:49:19;;;;;;;10.07;2.10;;;;;;;;;;4996080;28;20022;-31
2022/11/28 08:51:45;;;;;;;11.60;2.30;;;;;;;;;;4995155;28;20034;-31
2022/11/28 08:54:11;;;;;;;8.68;1.75;;;;;;;;;;4996076;28;20034;-31
2022/11/28 08:56:37;;;;;;;2.92;2.00;;;;;;;;;;4995999;28;20046;-31
2022/11/28 08:59:04;;;;;;;8.85;2.25;;;;;;;;;;4995913;28;20042;-32
2022/11/28 09:01:30;;;;;;;4.65;1.58;;;;;;;;;;4995910;28;20026;-31
2022/11/28 09:03:57;;;;;;;3.90;1.83;;;;;;;;;;4995576;28;20121;-30
2022/11/28 09:06:23;;;;;;;3.08;1.40;;;;;;;;;;4996018;28;20342;-31
2022/11/28 09:08:50;;;;;;;7.00;2.08;;;;;;;;;;4995659;28;20038;-31
2022/11/28 09:11:17;;;;;;;6.88;2.03;;;;;;;;;;4995891;28;20041;-31
2022/11/28 09:13:44;;;;;;;4.63;1.67;;;;;;;;;;4996190;28;20033;-30
2022/11/28 09:16:10;;;;;;;8.15;1.58;;;;;;;;;;4995906;28;20049;-30
2022/11/28 09:18:36;;;;;;;6.63;1.70;;;;;;;;;;4995463;28;20030;-30
2022/11/28 09:21:04;;;;;;;6.55;1.73;;;;;;;;;;4995424;28;20049;-30
2022/11/28 09:23:31;;;;;;;3.97;1.75;;;;;;;;;;4995469;28;20041;-30
2022/11/28 09:25:57;;;;;;;10.55;1.90;;;;;;;;;;4995637;28;20042;-30
2022/11/28 09:28:27;;;;;;;7.82;2.22;;;;;;;;;;4995279;28;20061;-31
2022/11/28 09:30:59;;;;;;;6.88;2.38;;;;;;;;;;4995461;28;20034;-31
2022/11/28 09:33:25;;;;;;;4.85;1.90;;;;;;;;;;4995433;28;20335;-31
2022/11/28 09:35:51;;;;;;;3.45;1.77;;;;;;;;;;4995195;28;20039;-31
2022/11/28 09:38:18;;;;;;;14.88;2.40;;;;;;;;;;4995575;28;20026;-32
2022/11/28 09:40:44;;;;;;;5.10;2.08;;;;;;;;;;4995160;28;20032;-32
2022/11/28 09:43:28;;;;;;;4.10;1.90;;;;;;;;;;4995357;28;20018;-33
2022/11/28 09:45:55;;;;;;;3.75;2.05;;;;;;;;;;4995421;28;20456;-32
2022/11/28 09:48:31;;;;;;;5.68;2.25;;;;;;;;;;4994199;28;20038;-31
2022/11/28 09:51:00;;;;;;;7.38;1.55;;;;;;;;;;4995459;28;20031;-31
2022/11/28 09:53:35;;;;;;;7.30;2.03;;;;;;;;;;4995868;28;20318;-32
2022/11/28 09:56:09;;;;;;;2.95;1.77;;;;;;;;;;4995030;28;20420;-31
2022/11/28 09:58:45;;;;;;;8.02;1.70;;;;;;;;;;4995555;28;20109;-31
2022/11/28 10:01:11;;;;;;;7.60;2.55;;;;;;;;;;4995506;28;20037;-32
2022/11/28 10:03:40;;;;;;;8.07;2.05;;;;;;;;;;4994714;28;20057;-32
2022/11/28 10:06:09;;;;;;;3.70;1.75;;;;;;;;;;4994829;28;20038;-31
2022/11/28 10:09:02;;;;;;;5.00;2.40;;;;;;;;;;4995073;28;20042;-31
2022/11/28 10:11:46;;;;;;;4.35;2.40;;;;;;;;;;4965583;28;20031;-32
2022/11/28 10:14:19;;;;;;;7.68;1.60;;;;;;;;;;4994900;28;20097;-31
2022/11/28 10:16:58;;;;;;;6.88;1.58;;;;;;;;;;4995200;28;20045;-31
2022/11/28 10:19:36;;;;;;;7.50;2.55;;;;;;;;;;4994431;28;20038;-31
2022/11/28 10:22:05;;;;;;;3.28;1.60;;;;;;;;;;4995695;28;20026;-31
2022/11/28 10:24:41;;;;;;;6.20;1.92;;;;;;;;;;4998912;28;20453;-33
2022/11/28 10:27:07;;;;;;;8.60;1.60;;;;;;;;;;4999099;28;20041;-32
2022/11/28 10:30:09;;;;;;;6.35;2.00;;;;;;;;;;4998719;28;20034;-32
2022/11/28 10:32:37;;;;;;;2.95;2.05;;;;;;;;;;4919953;29;20045;-32
2022/11/28 10:35:06;;;;;;;4.57;2.00;;;;;;;;;;4984648;28;20377;-32
2022/11/28 10:37:34;;;;;;;11.25;2.70;;;;;;;;;;4998577;28;20053;-31
2022/11/28 10:40:20;;;;;;;8.15;2.08;;;;;;;;;;4998402;28;20065;-31
2022/11/28 10:42:58;;;;;;;5.68;1.70;;;;;;;;;;4998571;28;20096;-31
2022/11/28 10:45:43;;;;;;;6.60;2.00;;;;;;;;;;4998338;28;20034;-32
2022/11/28 10:48:19;;;;;;;8.77;2.45;;;;;;;;;;4998728;28;20030;-33
2022/11/28 10:50:48;;;;;;;7.57;2.35;;;;;;;;;;4997234;28;20057;-32
2022/11/28 10:53:17;;;;;;;7.80;2.15;;;;;;;;;;4998260;28;20023;-32
2022/11/28 10:56:04;;;;;;;8.15;1.98;;;;;;;;;;4998146;28;20030;-31
2022/11/28 10:58:46;;;;;;;8.27;1.80;;;;;;;;;;4998081;28;20105;-31
2022/11/28 11:01:13;;;;;;;12.07;2.50;;;;;;;;;;4998704;28;20038;-31
2022/11/28 11:03:39;;;;;;;8.43;2.92;;;;;;;;;;4996879;28;20046;-32
2022/11/28 11:06:06;;;;;;;8.77;1.83;;;;;;;;;;4998315;28;20105;-31
2022/11/28 11:08:37;;;;;;;3.92;1.67;;;;;;;;;;4998148;28;20034;-30
2022/11/28 11:11:24;;;;;;;5.07;2.20;;;;;;;;;;4998412;28;20038;-31
2022/11/28 11:14:04;;;;;;;9.18;3.08;;;;;;;;;;4998096;28;20087;-31
2022/11/28 11:16:50;;;;;;;10.57;2.53;;;;;;;;;;4997664;28;20544;-31
2022/11/28 11:19:23;;;;;;;17.48;2.17;;;;;;;;;;4998055;28;20128;-30
2022/11/28 11:22:01;;;;;;;5.57;1.73;;;;;;;;;;4997961;28;20026;-30
2022/11/28 11:24:27;;;;;;;12.10;1.95;;;;;;;;;;4997720;28;20061;-30
2022/11/28 11:26:54;;;;;;;6.90;1.80;;;;;;;;;;4997707;28;20330;-31
2022/11/28 11:29:21;;;;;;;6.90;1.73;;;;;;;;;;4997534;28;20030;-31
2022/11/28 11:31:52;;;;;;;7.30;2.03;;;;;;;;;;4998012;28;20115;-31
2022/11/28 11:34:19;;;;;;;6.05;2.08;;;;;;;;;;4996182;28;20032;-31
2022/11/28 11:36:45;;;;;;;6.20;2.65;;;;;;;;;;4997403;28;20065;-31
2022/11/28 11:39:11;;;;;;;7.05;2.28;;;;;;;;;;4997444;28;20026;-32
2022/11/28 11:41:39;;;;;;;3.30;2.75;;;;;;;;;;4996460;28;20543;-32
2022/11/28 11:44:14;;;;;;;8.63;2.78;;;;;;;;;;4997365;28;20030;-31
2022/11/28 11:46:53;;;;;;;9.10;2.50;;;;;;;;;;4997169;28;20038;-32
2022/11/28 11:49:30;;;;;;;11.48;2.15;;;;;;;;;;4997697;28;20077;-30
2022/11/28 11:51:57;;;;;;;10.38;2.42;;;;;;;;;;4996486;28;20038;-31
2022/11/28 11:54:23;;;;;;;7.43;2.05;;;;;;;;;;4997373;28;20105;-31
2022/11/28 11:56:50;;;;;;;8.32;2.08;;;;;;;;;;4997023;28;20388;-31
2022/11/28 11:59:19;;;;;;;8.45;1.80;;;;;;;;;;4996324;28;20366;-31
2022/11/28 12:01:47;;;;;;;8.77;2.28;;;;;;;;;;4996723;28;20120;-31
2022/11/28 12:04:26;;;;;;;5.05;1.88;;;;;;;;;;4996731;28;20177;-31
2022/11/28 12:06:53;;;;;;;6.93;2.10;;;;;;;;;;4997297;28;20030;-31
2022/11/28 12:09:31;;;;;;;14.50;2.40;;;;;;;;;;4996594;28;20026;-32
2022/11/28 12:12:17;;;;;;;11.30;2.05;;;;;;;;;;4996729;28;20453;-31
2022/11/28 12:14:44;;;;;;;4.13;2.13;;;;;;;;;;4996810;28;20381;-31
2022/11/28 12:17:16;;;;;;;10.32;2.63;;;;;;;;;;4996682;28;20319;-31
2022/11/28 12:19:51;;;;;;;11.77;2.40;;;;;;;;;;4996770;28;20049;-31
2022/11/28 12:22:31;;;;;;;4.18;2.30;;;;;;;;;;4996469;28;20033;-32
2022/11/28 12:25:10;;;;;;;12.07;2.33;;;;;;;;;;4997018;28;20022;-30
2022/11/28 12:27:45;;;;;;;8.13;1.85;;;;;;;;;;4996099;28;20040;-31
2022/11/28 12:30:25;;;;;;;14.80;2.25;;;;;;;;;;4996271;28;20038;-30
2022/11/28 12:32:54;;;;;;;13.48;2.47;;;;;;;;;;4995201;28;20037;-30
2022/11/28 12:35:40;;;;;;;9.57;2.70;;;;;;;;;;4996208;28;20018;-31
2022/11/28 12:38:16;;;;;;;11.43;2.95;;;;;;;;;;4996457;28;20026;-31
2022/11/28 12:40:53;;;;;;;7.70;2.05;;;;;;;;;;4996058;28;20038;-30
2022/11/28 12:43:35;;;;;;;8.15;2.55;;;;;;;;;;4996249;28;20030;-30
2022/11/28 12:46:01;;;;;;;;;;;;;;;;;;4995075;28;20034;-31
2022/11/28 12:48:44;;;;;;;21.17;4.65;;;;;;;;;;4995973;28;20059;-31
2022/11/28 12:51:13;;;;;;;8.45;2.13;;;;;;;;;;4978845;28;20030;-36
2022/11/28 12:53:58;;;;;;;11.38;2.38;;;;;;;;;;4995711;28;20442;-30
2022/11/28 12:56:31;;;;;;;5.22;2.40;;;;;;;;;;4996049;28;20480;-31
2022/11/28 12:59:01;;;;;;;4.82;2.30;;;;;;;;;;4995686;28;20105;-31
2022/11/28 13:01:38;;;;;;;8.38;2.28;;;;;;;;;;4996148;28;20121;-30
2022/11/28 13:04:11;;;;;;;5.22;2.35;;;;;;;;;;4995397;28;20062;-30
2022/11/28 13:06:53;;;;;;;9.18;1.88;;;;;;;;;;4995721;28;20034;-30
2022/11/28 13:09:25;;;;;;;12.00;1.95;;;;;;;;;;4995236;28;20026;-30
2022/11/28 13:12:01;;;;;;;11.73;2.22;;;;;;;;;;4996146;28;20040;-31
2022/11/28 13:14:37;;;;;;;8.75;1.90;;;;;;;;;;4995679;28;20034;-31
2022/11/28 13:17:13;;;;;;;7.03;2.42;;;;;;;;;;4995604;28;20027;-31
2022/11/28 13:19:50;;;;;;;9.77;1.85;;;;;;;;;;4995673;28;20094;-32
2022/11/28 13:22:18;;;;;;;8.07;2.10;;;;;;;;;;4995297;28;20038;-31
2022/11/28 13:24:44;;;;;;;16.33;4.03;;;;;;;;;;4994431;28;20424;-31
2022/11/28 13:27:31;;;;;;;7.70;2.53;;;;;;;;;;4995618;28;20069;-31
2022/11/28 13:29:57;;;;;;;7.38;2.20;;;;;;;;;;4995197;28;20069;-31
2022/11/28 13:32:26;;;;;;;6.65;3.22;;;;;;;;;;4995103;28;20453;-31
2022/11/28 13:34:52;;;;;;;13.30;2.30;;;;;;;;;;4995084;28;20090;-31
2022/11/28 13:37:21;;;;;;;13.10;2.28;;;;;;;;;;4994755;28;20022;-30
2022/11/28 13:40:01;;;;;;;8.05;2.40;;;;;;;;;;4995050;28;20049;-31
2022/11/28 13:42:47;;;;;;;10.75;3.08;;;;;;;;;;4994628;28;20049;-30
2022/11/28 13:45:17;;;;;;;15.82;2.65;;;;;;;;;;4995454;28;20026;-31
2022/11/28 13:47:43;;;;;;;10.18;3.15;;;;;;;;;;4993865;28;20034;-32
2022/11/28 13:50:24;;;;;;;8.70;2.28;;;;;;;;;;4994701;28;20358;-31
2022/11/28 13:53:06;;;;;;;13.57;2.45;;;;;;;;;;4994816;28;20030;-31
2022/11/28 13:55:43;;;;;;;10.20;2.53;;;;;;;;;;4995021;28;20025;-30
2022/11/28 13:58:15;;;;;;;7.85;2.35;;;;;;;;;;4993965;28;20026;-31
2022/11/28 14:00:42;;;;;;;13.90;2.75;;;;;;;;;;4993837;28;20094;-30
2022/11/28 14:03:18;;;;;;;10.52;2.92;;;;;;;;;;4994583;28;20437;-30
2022/11/28 14:05:45;;;;;;;19.63;4.43;;;;;;;;;;4995362;28;20030;-31
2022/11/28 14:08:29;;;;;;;23.80;2.90;;;;;;;;;;4994789;28;20116;-31
2022/11/28 14:10:55;;;;;;;13.38;2.97;;;;;;;;;;4995018;28;20113;-30
2022/11/28 14:13:22;;;;;;;10.02;2.55;;;;;;;;;;4994642;28;20029;-31
2022/11/28 14:16:17;;;;;;;10.15;2.40;;;;;;;;;;4993631;28;20062;-31
2022/11/28 14:18:46;;;;;;;11.85;2.78;;;;;;;;;;4978240;28;20169;-31
2022/11/28 14:21:31;;;;;;;24.58;3.35;;;;;;;;;;4994590;28;20041;-31
2022/11/28 14:24:15;;;;;;;21.73;3.05;;;;;;;;;;4994838;28;20374;-31
2022/11/28 14:26:44;;;;;;;11.35;3.60;;;;;;;;;;4994856;28;20365;-31
2022/11/28 14:29:21;;;;;;;9.90;2.53;;;;;;;;;;4994505;28;20042;-30
2022/11/28 14:31:47;;;;;;;17.30;2.90;;;;;;;;;;4994778;28;20051;-30
2022/11/28 14:34:32;;;;;;;10.52;3.22;;;;;;;;;;4994535;28;20026;-30
2022/11/28 14:37:16;;;;;;;9.15;2.05;;;;;;;;;;4994758;28;20053;-30
2022/11/28 14:39:42;;;;;;;17.10;2.20;;;;;;;;;;4994800;28;20096;-30
2022/11/28 14:42:09;;;;;;;7.57;2.35;;;;;;;;;;4994780;28;20064;-30
2022/11/28 14:44:51;;;;;;;12.38;2.70;;;;;;;;;;4994909;28;20031;-30
2022/11/28 14:47:21;;;;;;;6.55;2.42;;;;;;;;;;4994521;28;20030;-30
2022/11/28 14:50:06;;;;;;;5.95;2.33;;;;;;;;;;4994454;28;20494;-30
2022/11/28 14:52:36;;;;;;;7.22;1.77;;;;;;;;;;4994631;28;20412;-30
2022/11/28 14:55:12;;;;;;;16.10;3.60;;;;;;;;;;4994532;28;20039;-31
2022/11/28 14:57:58;;;;;;;9.57;2.70;;;;;;;;;;4994452;28;20046;-31
2022/11/28 15:00:26;;;;;;;18.63;3.85;;;;;;;;;;4994342;28;20122;-30
2022/11/28 15:03:19;;;;;;;4.13;2.38;;;;;;;;;;4994267;28;20125;-30
2022/11/28 15:05:51;;;;;;;6.22;2.38;;;;;;;;;;4965154;28;20074;-31